• Join FlightAware (Why Join?)
  • Login
  • US Flag 
11:43PM EST


 

Airport Tracker/Info


-or-


 

Live Flight TrackerFlight Track Log ✈ SWA471 ✈ 15-Apr-2013 ✈ KMCI - KDAL

Flight Track Log - Related Links

Times and Time Zones

All times are in EDT time to prevent confusion due to time zone crossing. See the SWA471 flight status page for this flight to view local times or setup timezone preferences in your user account.

Time Position Orientation Groundspeed Altitude Reporting Facility
EDT Latitude Longitude Course Direction KTS MPH feet Rate Location/Type
09:27PM 39.3439 -94.7275 343° North 163 188 2,900  Level Kansas City Center
09:28PM 39.3575 -94.8144 281° West 238 274 6,700 3,180 Climbing Kansas City Center
09:29PM 39.3011 -94.8450 203° Southwest 262 302 9,500 2,520 Climbing Kansas City Center
09:30PM 39.2356 -94.8622 192° South 251 289 12,000 2,700 Climbing Kansas City Center
09:31PM 39.1392 -94.8858 191° South 312 359 15,000 2,520 Climbing Kansas City Center
09:32PM 39.0556 -94.9081 192° South 318 366 17,200 2,100 Climbing Kansas City Center
09:33PM 38.9639 -94.9308 191° South 346 398 19,300 2,100 Climbing Kansas City Center
09:34PM 38.8531 -94.9575 191° South 361 415 21,500 2,040 Climbing Kansas City Center
09:35PM 38.7550 -94.9828 191° South 371 427 23,600 1,680 Climbing Kansas City Center
09:36PM 38.6378 -95.0122 191° South 385 443 25,100 1,500 Climbing Kansas City Center
09:37PM 38.5308 -95.0383 191° South 404 465 26,800 1,860 Climbing Kansas City Center
09:38PM 38.4256 -95.0661 192° South 402 463 29,000 2,040 Climbing Kansas City Center
09:39PM 38.3047 -95.0958 191° South 397 457 31,100 1,800 Climbing Kansas City Center
09:40PM 38.2025 -95.1183 190° South 392 451 32,700 1,740 Climbing Kansas City Center
09:41PM 38.0850 -95.1572 195° South 388 447 34,700 1,560 Climbing Kansas City Center
09:42PM 37.9900 -95.1897 195° South 373 429 36,000 600 Climbing Kansas City Center
09:43PM 37.8919 -95.2231 195° South 374 430 36,000  Level Kansas City Center
09:44PM 37.7897 -95.2569 195° South 378 435 36,000  Level Kansas City Center
09:45PM 37.6792 -95.2714 186° South 394 453 36,000  Level Kansas City Center
09:46PM 37.5467 -95.2875 186° South 397 457 36,000  Level Kansas City Center
09:47PM 37.4361 -95.3033 186° South 399 459 36,000  Level Kansas City Center
09:48PM 37.3250 -95.3194 187° South 401 461 36,000  Level Kansas City Center
09:49PM 37.2136 -95.3361 187° South 402 463 36,000  Level Kansas City Center
09:50PM 37.1008 -95.3486 185° South 403 464 36,000  Level Kansas City Center
09:51PM 36.9872 -95.3592 184° South 407 468 36,000  Level Kansas City Center
09:52PM 36.8747 -95.3722 185° South 406 467 36,000  Level Kansas City Center
09:53PM 36.7636 -95.3836 185° South 402 463 36,000  Level Kansas City Center
09:54PM 36.6536 -95.3933 184° South 397 457 36,000  Level Kansas City Center
09:55PM 36.5344 -95.3761 173° South 398 458 36,000  Level Kansas City Center
09:56PM 36.4233 -95.3619 174° South 399 459 36,000  Level Kansas City Center
09:57PM 36.3122 -95.3478 174° South 400 460 36,000  Level Kansas City Center
09:58PM 36.2017 -95.3350 175° South 400 460 36,000  Level Kansas City Center
09:59PM 36.0897 -95.3325 179° South 402 463 36,000  Level Kansas City Center
10:00PM 35.9747 -95.3278 178° South 406 467 36,000  Level Kansas City Center
10:01PM 35.8372 -95.3206 178° South 410 472 36,000  Level Kansas City Center
10:02PM 35.7281 -95.3144 177° South 398 458 36,000 -120 Level Kansas City Center
10:03PM 35.6189 -95.3069 177° South 392 451 35,800 -540 Descending Kansas City Center
10:04PM 35.5492 -95.3064 180° South 407 468 35,200 -540 Descending Fort Worth Center
10:05PM 35.4364 -95.2989 177° South 407 468 35,000 -120 Descending Fort Worth Center
10:06PM 35.3258 -95.2942 178° South 407 468 35,000  Level Fort Worth Center
10:07PM 35.2131 -95.2892 178° South 407 468 35,000  Level Fort Worth Center
10:08PM 35.0983 -95.2819 177° South 407 468 35,000  Level Fort Worth Center
10:09PM 34.9833 -95.2747 177° South 407 468 35,000 -240 Level Fort Worth Center
10:10PM 34.8861 -95.3178 200° South 387 445 34,600 -720 Descending Fort Worth Center
10:11PM 34.7953 -95.3756 208° Southwest 380 437 33,600 -1,020 Descending Fort Worth Center
10:12PM 34.7022 -95.4308 206° Southwest 374 430 32,600 -960 Descending Fort Worth Center
10:13PM 34.6136 -95.4908 209° Southwest 374 430 31,700 -900 Descending Fort Worth Center
10:14PM 34.5186 -95.5536 209° Southwest 374 430 30,800 -960 Descending Fort Worth Center
10:15PM 34.4233 -95.6133 207° Southwest 384 442 29,800 -960 Descending Fort Worth Center
10:16PM 34.3261 -95.6733 207° Southwest 390 449 28,900 -1,140 Descending Fort Worth Center
10:17PM 34.2311 -95.7331 207° Southwest 390 449 27,600 -1,860 Descending Fort Worth Center
10:18PM 34.1358 -95.7925 207° Southwest 384 442 25,200 -2,340 Descending Fort Worth Center
10:19PM 34.0572 -95.8442 209° Southwest 379 436 23,000 -2,400 Descending Fort Worth Center
10:20PM 33.9619 -95.8983 205° Southwest 373 429 20,500 -2,520 Descending Fort Worth Center
10:21PM 33.8686 -95.9650 211° Southwest 368 423 18,000 -2,400 Descending Fort Worth Center
10:22PM 33.7900 -96.0089 205° Southwest 347 399 15,800 -2,280 Descending Fort Worth Center
10:23PM 33.7008 -96.0653 208° Southwest 336 387 13,500 -2,100 Descending Fort Worth Center
10:24PM 33.6303 -96.1061 206° Southwest 320 368 11,600 -1,800 Descending Fort Worth Center
10:25PM 33.5494 -96.1572 208° Southwest 310 357 10,000 -840 Descending Fort Worth Center
10:26PM 33.4850 -96.1981 208° Southwest 284 327 10,000  Level Fort Worth Center
10:27PM 33.4228 -96.2361 207° Southwest 264 304 10,000 -300 Level Fort Worth Center
10:28PM 33.3606 -96.2769 209° Southwest 259 298 9,500 -720 Descending Fort Worth Center
10:29PM 33.3025 -96.3197 212° Southwest 259 298 8,600 -900 Descending Fort Worth Center
10:30PM 33.2572 -96.3875 231° Southwest 259 298 7,700 -1,020 Descending Fort Worth Center
10:31PM 33.2139 -96.4525 231° Southwest 259 298 6,600 -1,020 Descending Fort Worth Center
10:32PM 33.1725 -96.5150 232° Southwest 254 292 5,700 -900 Descending Fort Worth Center
10:33PM 33.1333 -96.5750 232° Southwest 254 292 4,800 -900 Descending Fort Worth Center
10:34PM 33.0878 -96.6447 232° Southwest 254 292 4,000 -480 Descending Fort Worth Center
10:35PM 33.0500 -96.7000 231° Southwest 224 258 4,000  Level Dallas / Fort Worth TRACON
10:36PM 33.0167 -96.7500 232° Southwest 223 257 4,000 -540 Level Dallas / Fort Worth TRACON
10:37PM 32.9833 -96.8000 232° Southwest 213 245 3,100 -540 Descending Dallas / Fort Worth TRACON
10:38PM 32.9500 -96.8500 232° Southwest 181 208 3,000 -180 Descending Dallas / Fort Worth TRACON
10:39PM 32.9333 -96.8833 239° Southwest 128 147 2,800 -540 Descending Dallas / Fort Worth TRACON
10:41PM 32.8833 -96.9000 196° South 114 131 1,500 -660 Descending Dallas / Fort Worth TRACON
10:42PM 32.8667 -96.8833 140° Southeast 119 137 900 -600 Descending Dallas / Fort Worth TRACON
10:44PM 32.8471 -96.8518 228° Southwest  Level Estimated
10:51PM 32.8471 -96.8518 228° Southwest  Level Estimated